sensor_id;sensor_type;location;lat;lon;timestamp;P1;durP1;ratioP1;P2;durP2;ratioP2
10191;SDS011;17580;50.850;4.504;2023-04-02T00:05:21;10.80;;;9.67;;
10191;SDS011;17580;50.850;4.504;2023-04-02T00:11:06;8.90;;;8.10;;
10191;SDS011;17580;50.850;4.504;2023-04-02T00:13:35;9.13;;;8.40;;
10191;SDS011;17580;50.850;4.504;2023-04-02T00:16:05;7.83;;;7.10;;
10191;SDS011;17580;50.850;4.504;2023-04-02T00:18:38;9.50;;;8.70;;
10191;SDS011;17580;50.850;4.504;2023-04-02T00:21:09;8.27;;;7.57;;
10191;SDS011;17580;50.850;4.504;2023-04-02T00:23:40;8.60;;;7.83;;
10191;SDS011;17580;50.850;4.504;2023-04-02T00:26:20;9.53;;;8.43;;
10191;SDS011;17580;50.850;4.504;2023-04-02T00:28:49;8.80;;;8.00;;
10191;SDS011;17580;50.850;4.504;2023-04-02T00:31:17;8.50;;;7.80;;
10191;SDS011;17580;50.850;4.504;2023-04-02T00:33:45;8.47;;;7.77;;
10191;SDS011;17580;50.850;4.504;2023-04-02T00:36:14;7.17;;;6.67;;
10191;SDS011;17580;50.850;4.504;2023-04-02T00:38:44;8.70;;;7.90;;
10191;SDS011;17580;50.850;4.504;2023-04-02T00:41:12;8.20;;;7.57;;
10191;SDS011;17580;50.850;4.504;2023-04-02T00:43:44;9.10;;;8.30;;
10191;SDS011;17580;50.850;4.504;2023-04-02T00:46:15;9.27;;;7.30;;
10191;SDS011;17580;50.850;4.504;2023-04-02T00:48:48;8.00;;;7.30;;
10191;SDS011;17580;50.850;4.504;2023-04-02T00:51:19;7.23;;;6.63;;
10191;SDS011;17580;50.850;4.504;2023-04-02T00:53:51;8.63;;;7.90;;
10191;SDS011;17580;50.850;4.504;2023-04-02T00:56:21;8.37;;;7.60;;
10191;SDS011;17580;50.850;4.504;2023-04-02T00:58:53;9.23;;;8.37;;
10191;SDS011;17580;50.850;4.504;2023-04-02T01:01:23;7.93;;;7.13;;
10191;SDS011;17580;50.850;4.504;2023-04-02T01:03:56;7.53;;;6.93;;
10191;SDS011;17580;50.850;4.504;2023-04-02T01:06:25;7.17;;;6.57;;
10191;SDS011;17580;50.850;4.504;2023-04-02T01:09:02;8.07;;;7.43;;
10191;SDS011;17580;50.850;4.504;2023-04-02T01:11:45;7.70;;;7.00;;
10191;SDS011;17580;50.850;4.504;2023-04-02T01:14:27;8.47;;;7.47;;
10191;SDS011;17580;50.850;4.504;2023-04-02T01:17:06;8.73;;;7.87;;
10191;SDS011;17580;50.850;4.504;2023-04-02T01:19:57;9.43;;;8.63;;
10191;SDS011;17580;50.850;4.504;2023-04-02T01:22:47;9.20;;;8.37;;
10191;SDS011;17580;50.850;4.504;2023-04-02T01:25:23;8.57;;;7.87;;
10191;SDS011;17580;50.850;4.504;2023-04-02T01:27:56;9.87;;;8.97;;
10191;SDS011;17580;50.850;4.504;2023-04-02T01:30:33;9.17;;;8.37;;
10191;SDS011;17580;50.850;4.504;2023-04-02T01:33:01;7.77;;;7.07;;
10191;SDS011;17580;50.850;4.504;2023-04-02T01:35:30;8.43;;;7.67;;
10191;SDS011;17580;50.850;4.504;2023-04-02T01:38:02;8.83;;;7.93;;
10191;SDS011;17580;50.850;4.504;2023-04-02T01:40:35;8.23;;;7.50;;
10191;SDS011;17580;50.850;4.504;2023-04-02T01:43:11;7.53;;;6.93;;
10191;SDS011;17580;50.850;4.504;2023-04-02T01:45:46;9.30;;;8.50;;
10191;SDS011;17580;50.850;4.504;2023-04-02T01:48:14;8.00;;;7.30;;
10191;SDS011;17580;50.850;4.504;2023-04-02T01:50:44;9.27;;;7.60;;
10191;SDS011;17580;50.850;4.504;2023-04-02T01:53:15;8.50;;;7.80;;
10191;SDS011;17580;50.850;4.504;2023-04-02T01:55:44;10.63;;;9.63;;
10191;SDS011;17580;50.850;4.504;2023-04-02T01:58:13;9.10;;;8.30;;
10191;SDS011;17580;50.850;4.504;2023-04-02T02:00:46;9.20;;;8.40;;
10191;SDS011;17580;50.850;4.504;2023-04-02T02:03:17;9.23;;;8.40;;
10191;SDS011;17580;50.850;4.504;2023-04-02T02:05:45;8.80;;;8.00;;
10191;SDS011;17580;50.850;4.504;2023-04-02T02:08:19;8.53;;;7.83;;
10191;SDS011;17580;50.850;4.504;2023-04-02T02:10:52;9.03;;;8.13;;
10191;SDS011;17580;50.850;4.504;2023-04-02T02:13:20;8.73;;;8.03;;
10191;SDS011;17580;50.850;4.504;2023-04-02T02:15:49;7.60;;;6.93;;
10191;SDS011;17580;50.850;4.504;2023-04-02T02:18:17;6.93;;;6.40;;
10191;SDS011;17580;50.850;4.504;2023-04-02T02:20:47;7.27;;;6.67;;
10191;SDS011;17580;50.850;4.504;2023-04-02T02:23:15;6.57;;;5.97;;
10191;SDS011;17580;50.850;4.504;2023-04-02T02:25:42;6.33;;;5.80;;
10191;SDS011;17580;50.850;4.504;2023-04-02T02:28:09;6.90;;;6.40;;
10191;SDS011;17580;50.850;4.504;2023-04-02T02:30:42;7.70;;;7.10;;
10191;SDS011;17580;50.850;4.504;2023-04-02T02:33:15;7.47;;;6.87;;
10191;SDS011;17580;50.850;4.504;2023-04-02T02:35:47;7.50;;;6.90;;
10191;SDS011;17580;50.850;4.504;2023-04-02T02:38:22;7.23;;;6.63;;
10191;SDS011;17580;50.850;4.504;2023-04-02T02:41:09;6.40;;;5.90;;
10191;SDS011;17580;50.850;4.504;2023-04-02T02:43:43;6.57;;;6.07;;
10191;SDS011;17580;50.850;4.504;2023-04-02T02:46:17;8.13;;;7.40;;
10191;SDS011;17580;50.850;4.504;2023-04-02T02:48:48;8.83;;;8.13;;
10191;SDS011;17580;50.850;4.504;2023-04-02T02:51:20;7.87;;;7.17;;
10191;SDS011;17580;50.850;4.504;2023-04-02T02:53:53;7.40;;;6.80;;
10191;SDS011;17580;50.850;4.504;2023-04-02T02:56:25;8.23;;;7.53;;
10191;SDS011;17580;50.850;4.504;2023-04-02T02:58:54;10.73;;;9.73;;
10191;SDS011;17580;50.850;4.504;2023-04-02T03:01:22;9.40;;;8.53;;
10191;SDS011;17580;50.850;4.504;2023-04-02T03:03:52;9.77;;;8.93;;
10191;SDS011;17580;50.850;4.504;2023-04-02T03:06:20;8.70;;;7.87;;
10191;SDS011;17580;50.850;4.504;2023-04-02T03:08:48;10.17;;;9.27;;
10191;SDS011;17580;50.850;4.504;2023-04-02T03:11:21;8.50;;;7.70;;
10191;SDS011;17580;50.850;4.504;2023-04-02T03:13:55;9.10;;;8.30;;
10191;SDS011;17580;50.850;4.504;2023-04-02T03:16:29;8.23;;;7.57;;
10191;SDS011;17580;50.850;4.504;2023-04-02T03:19:01;8.47;;;7.77;;
10191;SDS011;17580;50.850;4.504;2023-04-02T03:21:35;8.97;;;8.17;;
10191;SDS011;17580;50.850;4.504;2023-04-02T03:24:08;9.50;;;8.60;;
10191;SDS011;17580;50.850;4.504;2023-04-02T03:26:41;8.73;;;8.03;;
10191;SDS011;17580;50.850;4.504;2023-04-02T03:29:14;9.47;;;8.57;;
10191;SDS011;17580;50.850;4.504;2023-04-02T03:31:43;9.07;;;8.27;;
10191;SDS011;17580;50.850;4.504;2023-04-02T03:34:17;9.23;;;8.37;;
10191;SDS011;17580;50.850;4.504;2023-04-02T03:36:51;10.47;;;9.47;;
10191;SDS011;17580;50.850;4.504;2023-04-02T03:39:23;11.47;;;10.10;;
10191;SDS011;17580;50.850;4.504;2023-04-02T03:41:55;12.30;;;11.10;;
10191;SDS011;17580;50.850;4.504;2023-04-02T03:44:29;10.70;;;9.70;;
10191;SDS011;17580;50.850;4.504;2023-04-02T03:47:02;11.00;;;9.93;;
10191;SDS011;17580;50.850;4.504;2023-04-02T03:49:37;11.17;;;10.07;;
10191;SDS011;17580;50.850;4.504;2023-04-02T03:52:08;12.30;;;11.20;;
10191;SDS011;17580;50.850;4.504;2023-04-02T03:54:37;12.27;;;11.10;;
10191;SDS011;17580;50.850;4.504;2023-04-02T03:57:05;13.00;;;11.80;;
10191;SDS011;17580;50.850;4.504;2023-04-02T03:59:44;13.67;;;12.33;;
10191;SDS011;17580;50.850;4.504;2023-04-02T04:02:24;11.40;;;10.30;;
10191;SDS011;17580;50.850;4.504;2023-04-02T04:05:01;12.97;;;11.67;;
10191;SDS011;17580;50.850;4.504;2023-04-02T04:07:31;11.53;;;10.43;;
10191;SDS011;17580;50.850;4.504;2023-04-02T04:10:00;10.97;;;9.97;;
10191;SDS011;17580;50.850;4.504;2023-04-02T04:12:30;12.83;;;11.63;;
10191;SDS011;17580;50.850;4.504;2023-04-02T04:15:00;13.33;;;12.13;;
10191;SDS011;17580;50.850;4.504;2023-04-02T04:17:33;11.27;;;10.27;;
10191;SDS011;17580;50.850;4.504;2023-04-02T04:20:17;12.17;;;10.73;;
10191;SDS011;17580;50.850;4.504;2023-04-02T04:22:48;13.03;;;11.23;;
10191;SDS011;17580;50.850;4.504;2023-04-02T04:25:20;11.93;;;10.80;;
10191;SDS011;17580;50.850;4.504;2023-04-02T04:27:58;11.73;;;10.53;;
10191;SDS011;17580;50.850;4.504;2023-04-02T04:30:33;11.70;;;10.60;;
10191;SDS011;17580;50.850;4.504;2023-04-02T04:33:10;13.10;;;11.47;;
10191;SDS011;17580;50.850;4.504;2023-04-02T04:35:48;11.90;;;10.67;;
10191;SDS011;17580;50.850;4.504;2023-04-02T04:38:20;14.43;;;11.53;;
10191;SDS011;17580;50.850;4.504;2023-04-02T04:40:57;12.30;;;11.10;;
10191;SDS011;17580;50.850;4.504;2023-04-02T04:43:32;13.17;;;11.87;;
10191;SDS011;17580;50.850;4.504;2023-04-02T04:46:08;11.00;;;10.00;;
10191;SDS011;17580;50.850;4.504;2023-04-02T04:48:40;10.87;;;9.80;;
10191;SDS011;17580;50.850;4.504;2023-04-02T04:51:18;10.70;;;9.70;;
10191;SDS011;17580;50.850;4.504;2023-04-02T04:53:48;14.40;;;13.00;;
10191;SDS011;17580;50.850;4.504;2023-04-02T04:56:17;12.33;;;11.13;;
10191;SDS011;17580;50.850;4.504;2023-04-02T04:58:49;12.23;;;11.07;;
10191;SDS011;17580;50.850;4.504;2023-04-02T05:01:20;12.37;;;11.07;;
10191;SDS011;17580;50.850;4.504;2023-04-02T05:03:53;12.20;;;10.90;;
10191;SDS011;17580;50.850;4.504;2023-04-02T05:06:31;11.97;;;10.87;;
10191;SDS011;17580;50.850;4.504;2023-04-02T05:09:03;13.63;;;12.07;;
10191;SDS011;17580;50.850;4.504;2023-04-02T05:11:38;14.40;;;13.00;;
10191;SDS011;17580;50.850;4.504;2023-04-02T05:14:11;13.97;;;12.57;;
10191;SDS011;17580;50.850;4.504;2023-04-02T05:16:44;14.63;;;13.07;;
10191;SDS011;17580;50.850;4.504;2023-04-02T05:19:17;12.40;;;11.20;;
10191;SDS011;17580;50.850;4.504;2023-04-02T05:21:52;15.03;;;13.43;;
10191;SDS011;17580;50.850;4.504;2023-04-02T05:24:36;12.80;;;11.50;;
10191;SDS011;17580;50.850;4.504;2023-04-02T05:27:14;13.27;;;11.87;;
10191;SDS011;17580;50.850;4.504;2023-04-02T05:29:49;14.53;;;13.03;;
10191;SDS011;17580;50.850;4.504;2023-04-02T05:32:21;14.47;;;12.97;;
10191;SDS011;17580;50.850;4.504;2023-04-02T05:34:53;13.87;;;11.90;;
10191;SDS011;17580;50.850;4.504;2023-04-02T05:37:24;14.53;;;13.10;;
10191;SDS011;17580;50.850;4.504;2023-04-02T05:39:54;12.90;;;11.47;;
10191;SDS011;17580;50.850;4.504;2023-04-02T05:42:23;13.17;;;11.97;;
10191;SDS011;17580;50.850;4.504;2023-04-02T05:47:44;12.63;;;11.43;;
10191;SDS011;17580;50.850;4.504;2023-04-02T05:50:19;14.60;;;13.10;;
10191;SDS011;17580;50.850;4.504;2023-04-02T05:52:54;12.77;;;11.47;;
10191;SDS011;17580;50.850;4.504;2023-04-02T05:55:28;11.80;;;10.70;;
10191;SDS011;17580;50.850;4.504;2023-04-02T05:58:13;12.27;;;11.07;;
10191;SDS011;17580;50.850;4.504;2023-04-02T06:00:50;11.90;;;10.80;;
10191;SDS011;17580;50.850;4.504;2023-04-02T06:03:27;12.70;;;11.40;;
10191;SDS011;17580;50.850;4.504;2023-04-02T06:06:04;10.23;;;9.27;;
10191;SDS011;17580;50.850;4.504;2023-04-02T06:08:41;11.03;;;9.80;;
10191;SDS011;17580;50.850;4.504;2023-04-02T06:11:16;9.10;;;8.30;;
10191;SDS011;17580;50.850;4.504;2023-04-02T06:13:47;9.00;;;8.20;;
10191;SDS011;17580;50.850;4.504;2023-04-02T06:16:14;9.73;;;8.80;;
10191;SDS011;17580;50.850;4.504;2023-04-02T06:18:42;9.67;;;8.77;;
10191;SDS011;17580;50.850;4.504;2023-04-02T06:21:10;9.00;;;8.20;;
10191;SDS011;17580;50.850;4.504;2023-04-02T06:23:42;10.90;;;9.07;;
10191;SDS011;17580;50.850;4.504;2023-04-02T06:26:15;9.43;;;8.47;;
10191;SDS011;17580;50.850;4.504;2023-04-02T06:28:46;9.83;;;8.93;;
10191;SDS011;17580;50.850;4.504;2023-04-02T06:31:18;10.50;;;8.87;;
10191;SDS011;17580;50.850;4.504;2023-04-02T06:33:50;11.00;;;9.90;;
10191;SDS011;17580;50.850;4.504;2023-04-02T06:36:19;9.70;;;8.60;;
10191;SDS011;17580;50.850;4.504;2023-04-02T06:38:48;10.20;;;9.20;;
10191;SDS011;17580;50.850;4.504;2023-04-02T06:41:18;9.20;;;8.40;;
10191;SDS011;17580;50.850;4.504;2023-04-02T06:43:48;11.07;;;9.97;;
10191;SDS011;17580;50.850;4.504;2023-04-02T06:46:19;10.90;;;9.33;;
10191;SDS011;17580;50.850;4.504;2023-04-02T06:48:50;11.13;;;9.63;;
10191;SDS011;17580;50.850;4.504;2023-04-02T06:51:21;10.67;;;9.57;;
10191;SDS011;17580;50.850;4.504;2023-04-02T06:53:52;10.43;;;9.53;;
10191;SDS011;17580;50.850;4.504;2023-04-02T06:56:22;11.80;;;10.57;;
10191;SDS011;17580;50.850;4.504;2023-04-02T06:58:59;12.13;;;10.93;;
10191;SDS011;17580;50.850;4.504;2023-04-02T07:01:29;15.37;;;13.77;;
10191;SDS011;17580;50.850;4.504;2023-04-02T07:04:01;16.47;;;13.33;;
10191;SDS011;17580;50.850;4.504;2023-04-02T07:06:28;15.27;;;13.27;;
10191;SDS011;17580;50.850;4.504;2023-04-02T07:08:56;16.87;;;13.43;;
10191;SDS011;17580;50.850;4.504;2023-04-02T07:11:23;12.17;;;10.77;;
10191;SDS011;17580;50.850;4.504;2023-04-02T07:13:50;12.77;;;10.97;;
10191;SDS011;17580;50.850;4.504;2023-04-02T07:16:18;16.43;;;14.50;;
10191;SDS011;17580;50.850;4.504;2023-04-02T07:18:46;17.57;;;13.60;;
10191;SDS011;17580;50.850;4.504;2023-04-02T07:21:14;14.57;;;13.10;;
10191;SDS011;17580;50.850;4.504;2023-04-02T07:23:41;12.57;;;11.37;;
10191;SDS011;17580;50.850;4.504;2023-04-02T07:26:12;13.23;;;11.03;;
10191;SDS011;17580;50.850;4.504;2023-04-02T07:28:41;11.23;;;10.23;;
10191;SDS011;17580;50.850;4.504;2023-04-02T07:31:12;14.37;;;11.30;;
10191;SDS011;17580;50.850;4.504;2023-04-02T07:33:42;10.17;;;9.27;;
10191;SDS011;17580;50.850;4.504;2023-04-02T07:36:12;14.57;;;9.07;;
10191;SDS011;17580;50.850;4.504;2023-04-02T07:38:40;8.43;;;7.63;;
10191;SDS011;17580;50.850;4.504;2023-04-02T07:41:09;7.10;;;6.10;;
10191;SDS011;17580;50.850;4.504;2023-04-02T07:43:37;8.33;;;7.43;;
10191;SDS011;17580;50.850;4.504;2023-04-02T07:46:05;7.17;;;6.47;;
10191;SDS011;17580;50.850;4.504;2023-04-02T07:48:33;6.67;;;6.07;;
10191;SDS011;17580;50.850;4.504;2023-04-02T07:51:00;6.60;;;6.00;;
10191;SDS011;17580;50.850;4.504;2023-04-02T07:53:28;7.10;;;6.40;;
10191;SDS011;17580;50.850;4.504;2023-04-02T07:55:58;6.90;;;6.30;;
10191;SDS011;17580;50.850;4.504;2023-04-02T07:58:28;6.23;;;5.63;;
10191;SDS011;17580;50.850;4.504;2023-04-02T08:00:56;6.37;;;5.77;;
10191;SDS011;17580;50.850;4.504;2023-04-02T08:03:23;6.13;;;5.53;;
10191;SDS011;17580;50.850;4.504;2023-04-02T08:05:51;6.33;;;5.73;;
10191;SDS011;17580;50.850;4.504;2023-04-02T08:08:18;6.53;;;6.00;;
10191;SDS011;17580;50.850;4.504;2023-04-02T08:10:46;7.27;;;6.60;;
10191;SDS011;17580;50.850;4.504;2023-04-02T08:13:13;9.30;;;6.80;;
10191;SDS011;17580;50.850;4.504;2023-04-02T08:15:43;7.53;;;6.83;;
10191;SDS011;17580;50.850;4.504;2023-04-02T08:18:10;7.73;;;6.93;;
10191;SDS011;17580;50.850;4.504;2023-04-02T08:20:38;7.20;;;6.60;;
10191;SDS011;17580;50.850;4.504;2023-04-02T08:23:11;8.57;;;7.70;;
10191;SDS011;17580;50.850;4.504;2023-04-02T08:25:41;9.27;;;7.30;;
10191;SDS011;17580;50.850;4.504;2023-04-02T08:28:08;9.00;;;8.10;;
10191;SDS011;17580;50.850;4.504;2023-04-02T08:30:35;8.43;;;7.63;;
10191;SDS011;17580;50.850;4.504;2023-04-02T08:33:03;7.37;;;6.77;;
10191;SDS011;17580;50.850;4.504;2023-04-02T08:35:30;13.13;;;8.50;;
10191;SDS011;17580;50.850;4.504;2023-04-02T08:37:58;9.83;;;7.77;;
10191;SDS011;17580;50.850;4.504;2023-04-02T08:40:26;8.20;;;7.40;;
10191;SDS011;17580;50.850;4.504;2023-04-02T08:43:03;8.90;;;8.03;;
10191;SDS011;17580;50.850;4.504;2023-04-02T08:45:45;8.60;;;7.80;;
10191;SDS011;17580;50.850;4.504;2023-04-02T08:48:22;10.13;;;9.13;;
10191;SDS011;17580;50.850;4.504;2023-04-02T08:50:49;9.67;;;8.70;;
10191;SDS011;17580;50.850;4.504;2023-04-02T08:53:18;9.27;;;8.30;;
10191;SDS011;17580;50.850;4.504;2023-04-02T08:55:50;8.93;;;8.03;;
10191;SDS011;17580;50.850;4.504;2023-04-02T08:58:28;10.57;;;8.87;;
10191;SDS011;17580;50.850;4.504;2023-04-02T09:01:05;7.83;;;7.03;;
10191;SDS011;17580;50.850;4.504;2023-04-02T09:03:39;8.57;;;7.77;;
10191;SDS011;17580;50.850;4.504;2023-04-02T09:06:09;9.87;;;8.77;;
10191;SDS011;17580;50.850;4.504;2023-04-02T09:08:38;8.87;;;8.00;;
10191;SDS011;17580;50.850;4.504;2023-04-02T09:11:10;9.23;;;8.40;;
10191;SDS011;17580;50.850;4.504;2023-04-02T09:13:44;8.33;;;7.37;;
10191;SDS011;17580;50.850;4.504;2023-04-02T09:16:14;9.10;;;8.27;;
10191;SDS011;17580;50.850;4.504;2023-04-02T09:18:46;9.53;;;8.20;;
10191;SDS011;17580;50.850;4.504;2023-04-02T09:21:21;9.37;;;8.67;;
10191;SDS011;17580;50.850;4.504;2023-04-02T09:23:56;8.90;;;7.97;;
10191;SDS011;17580;50.850;4.504;2023-04-02T09:26:25;7.80;;;7.00;;
10191;SDS011;17580;50.850;4.504;2023-04-02T09:28:58;8.03;;;7.23;;
10191;SDS011;17580;50.850;4.504;2023-04-02T09:31:29;8.53;;;7.73;;
10191;SDS011;17580;50.850;4.504;2023-04-02T09:34:02;10.03;;;8.03;;
10191;SDS011;17580;50.850;4.504;2023-04-02T09:36:53;8.57;;;7.67;;
10191;SDS011;17580;50.850;4.504;2023-04-02T09:39:21;9.23;;;7.50;;
10191;SDS011;17580;50.850;4.504;2023-04-02T09:41:51;8.07;;;7.27;;
10191;SDS011;17580;50.850;4.504;2023-04-02T09:44:19;7.27;;;6.57;;
10191;SDS011;17580;50.850;4.504;2023-04-02T09:46:50;6.73;;;6.17;;
10191;SDS011;17580;50.850;4.504;2023-04-02T09:49:21;6.20;;;5.53;;
10191;SDS011;17580;50.850;4.504;2023-04-02T09:55:04;6.53;;;5.50;;
10191;SDS011;17580;50.850;4.504;2023-04-02T09:57:49;5.30;;;4.90;;
10191;SDS011;17580;50.850;4.504;2023-04-02T10:00:19;5.87;;;5.30;;
10191;SDS011;17580;50.850;4.504;2023-04-02T10:02:58;6.73;;;4.90;;
10191;SDS011;17580;50.850;4.504;2023-04-02T10:05:29;6.90;;;5.67;;
10191;SDS011;17580;50.850;4.504;2023-04-02T10:08:04;5.43;;;4.87;;
10191;SDS011;17580;50.850;4.504;2023-04-02T10:10:35;6.37;;;5.73;;
10191;SDS011;17580;50.850;4.504;2023-04-02T10:13:06;8.57;;;6.67;;
10191;SDS011;17580;50.850;4.504;2023-04-02T10:15:39;8.07;;;6.17;;
10191;SDS011;17580;50.850;4.504;2023-04-02T10:18:14;7.97;;;4.47;;
10191;SDS011;17580;50.850;4.504;2023-04-02T10:20:48;5.23;;;4.80;;
10191;SDS011;17580;50.850;4.504;2023-04-02T10:23:17;4.47;;;4.07;;
10191;SDS011;17580;50.850;4.504;2023-04-02T10:25:46;5.00;;;4.60;;
10191;SDS011;17580;50.850;4.504;2023-04-02T10:28:22;4.53;;;4.13;;
10191;SDS011;17580;50.850;4.504;2023-04-02T10:31:03;6.23;;;4.73;;
10191;SDS011;17580;50.850;4.504;2023-04-02T10:33:34;6.63;;;4.87;;
10191;SDS011;17580;50.850;4.504;2023-04-02T10:36:06;5.60;;;5.10;;
10191;SDS011;17580;50.850;4.504;2023-04-02T10:38:41;5.60;;;5.10;;
10191;SDS011;17580;50.850;4.504;2023-04-02T10:41:18;5.67;;;5.17;;
10191;SDS011;17580;50.850;4.504;2023-04-02T10:47:03;4.90;;;4.50;;
10191;SDS011;17580;50.850;4.504;2023-04-02T10:49:40;5.73;;;4.97;;
10191;SDS011;17580;50.850;4.504;2023-04-02T10:52:14;4.43;;;4.13;;
10191;SDS011;17580;50.850;4.504;2023-04-02T10:54:46;5.53;;;4.50;;
10191;SDS011;17580;50.850;4.504;2023-04-02T10:57:24;3.73;;;3.07;;
10191;SDS011;17580;50.850;4.504;2023-04-02T10:59:58;4.33;;;3.87;;
10191;SDS011;17580;50.850;4.504;2023-04-02T11:02:41;4.80;;;4.27;;
10191;SDS011;17580;50.850;4.504;2023-04-02T11:05:18;5.07;;;3.33;;
10191;SDS011;17580;50.850;4.504;2023-04-02T11:07:52;3.20;;;2.97;;
10191;SDS011;17580;50.850;4.504;2023-04-02T11:10:23;3.40;;;3.10;;
10191;SDS011;17580;50.850;4.504;2023-04-02T11:12:56;3.73;;;3.43;;
10191;SDS011;17580;50.850;4.504;2023-04-02T11:15:26;3.27;;;3.07;;
10191;SDS011;17580;50.850;4.504;2023-04-02T11:17:55;5.77;;;3.90;;
10191;SDS011;17580;50.850;4.504;2023-04-02T11:23:35;4.33;;;3.63;;
10191;SDS011;17580;50.850;4.504;2023-04-02T11:26:30;4.37;;;2.80;;
10191;SDS011;17580;50.850;4.504;2023-04-02T11:31:48;2.83;;;2.60;;
10191;SDS011;17580;50.850;4.504;2023-04-02T11:37:28;5.17;;;3.67;;
10191;SDS011;17580;50.850;4.504;2023-04-02T11:40:02;4.77;;;3.93;;
10191;SDS011;17580;50.850;4.504;2023-04-02T11:42:48;4.93;;;3.50;;
10191;SDS011;17580;50.850;4.504;2023-04-02T11:48:26;3.50;;;2.87;;
10191;SDS011;17580;50.850;4.504;2023-04-02T11:50:54;3.20;;;2.93;;
10191;SDS011;17580;50.850;4.504;2023-04-02T11:53:23;3.27;;;3.07;;
10191;SDS011;17580;50.850;4.504;2023-04-02T11:56:08;4.20;;;3.40;;
10191;SDS011;17580;50.850;4.504;2023-04-02T12:10:30;4.13;;;3.43;;
10191;SDS011;17580;50.850;4.504;2023-04-02T12:13:00;5.20;;;3.20;;
10191;SDS011;17580;50.850;4.504;2023-04-02T12:15:30;4.50;;;2.97;;
10191;SDS011;17580;50.850;4.504;2023-04-02T12:18:10;5.03;;;3.70;;
10191;SDS011;17580;50.850;4.504;2023-04-02T12:20:40;3.47;;;3.17;;
10191;SDS011;17580;50.850;4.504;2023-04-02T12:23:14;7.37;;;3.80;;
10191;SDS011;17580;50.850;4.504;2023-04-02T12:25:44;3.80;;;2.87;;
10191;SDS011;17580;50.850;4.504;2023-04-02T12:28:21;3.33;;;2.60;;
10191;SDS011;17580;50.850;4.504;2023-04-02T12:30:49;4.33;;;2.87;;
10191;SDS011;17580;50.850;4.504;2023-04-02T12:33:27;5.03;;;3.33;;
10191;SDS011;17580;50.850;4.504;2023-04-02T12:35:58;4.47;;;3.17;;
10191;SDS011;17580;50.850;4.504;2023-04-02T12:38:26;4.80;;;2.90;;
10191;SDS011;17580;50.850;4.504;2023-04-02T12:40:55;3.40;;;3.00;;
10191;SDS011;17580;50.850;4.504;2023-04-02T12:43:28;4.23;;;3.83;;
10191;SDS011;17580;50.850;4.504;2023-04-02T12:45:57;6.40;;;4.17;;
10191;SDS011;17580;50.850;4.504;2023-04-02T12:48:26;6.03;;;3.33;;
10191;SDS011;17580;50.850;4.504;2023-04-02T12:50:54;2.90;;;2.60;;
10191;SDS011;17580;50.850;4.504;2023-04-02T12:53:23;3.63;;;2.70;;
10191;SDS011;17580;50.850;4.504;2023-04-02T12:55:51;2.70;;;2.50;;
10191;SDS011;17580;50.850;4.504;2023-04-02T12:58:31;5.73;;;3.17;;
10191;SDS011;17580;50.850;4.504;2023-04-02T13:01:11;3.90;;;2.93;;
10191;SDS011;17580;50.850;4.504;2023-04-02T13:03:39;3.50;;;2.57;;
10191;SDS011;17580;50.850;4.504;2023-04-02T13:06:17;5.33;;;3.27;;
10191;SDS011;17580;50.850;4.504;2023-04-02T13:08:48;2.83;;;2.63;;
10191;SDS011;17580;50.850;4.504;2023-04-02T13:11:15;3.53;;;3.13;;
10191;SDS011;17580;50.850;4.504;2023-04-02T13:13:44;3.03;;;2.83;;
10191;SDS011;17580;50.850;4.504;2023-04-02T13:16:24;3.93;;;3.03;;
10191;SDS011;17580;50.850;4.504;2023-04-02T13:19:08;3.90;;;3.07;;
10191;SDS011;17580;50.850;4.504;2023-04-02T13:21:36;3.03;;;2.83;;
10191;SDS011;17580;50.850;4.504;2023-04-02T13:24:03;2.67;;;2.37;;
10191;SDS011;17580;50.850;4.504;2023-04-02T13:26:40;6.00;;;2.73;;
10191;SDS011;17580;50.850;4.504;2023-04-02T13:29:15;3.40;;;2.80;;
10191;SDS011;17580;50.850;4.504;2023-04-02T13:31:48;3.77;;;2.47;;
10191;SDS011;17580;50.850;4.504;2023-04-02T13:34:15;5.03;;;3.20;;
10191;SDS011;17580;50.850;4.504;2023-04-02T13:36:43;4.23;;;2.77;;
10191;SDS011;17580;50.850;4.504;2023-04-02T13:39:10;3.43;;;2.73;;
10191;SDS011;17580;50.850;4.504;2023-04-02T13:41:38;3.87;;;2.90;;
10191;SDS011;17580;50.850;4.504;2023-04-02T13:44:10;4.77;;;3.67;;
10191;SDS011;17580;50.850;4.504;2023-04-02T13:46:44;3.23;;;2.90;;
10191;SDS011;17580;50.850;4.504;2023-04-02T13:49:11;8.03;;;2.90;;
10191;SDS011;17580;50.850;4.504;2023-04-02T13:51:39;7.00;;;2.53;;
10191;SDS011;17580;50.850;4.504;2023-04-02T13:54:09;3.80;;;2.83;;
10191;SDS011;17580;50.850;4.504;2023-04-02T13:56:41;2.50;;;2.20;;
10191;SDS011;17580;50.850;4.504;2023-04-02T13:59:09;2.43;;;2.23;;
10191;SDS011;17580;50.850;4.504;2023-04-02T14:01:37;2.57;;;2.20;;
10191;SDS011;17580;50.850;4.504;2023-04-02T14:04:05;3.97;;;3.07;;
10191;SDS011;17580;50.850;4.504;2023-04-02T14:06:40;3.83;;;3.43;;
10191;SDS011;17580;50.850;4.504;2023-04-02T14:09:23;2.67;;;2.57;;
10191;SDS011;17580;50.850;4.504;2023-04-02T14:11:59;3.20;;;2.70;;
10191;SDS011;17580;50.850;4.504;2023-04-02T14:14:36;2.73;;;2.30;;
10191;SDS011;17580;50.850;4.504;2023-04-02T14:17:20;3.70;;;2.43;;
10191;SDS011;17580;50.850;4.504;2023-04-02T14:19:58;3.80;;;2.80;;
10191;SDS011;17580;50.850;4.504;2023-04-02T14:22:46;4.17;;;3.03;;
10191;SDS011;17580;50.850;4.504;2023-04-02T14:25:24;2.57;;;2.20;;
10191;SDS011;17580;50.850;4.504;2023-04-02T14:27:58;2.43;;;2.33;;
10191;SDS011;17580;50.850;4.504;2023-04-02T14:30:32;3.00;;;1.97;;
10191;SDS011;17580;50.850;4.504;2023-04-02T14:33:11;2.50;;;2.30;;
10191;SDS011;17580;50.850;4.504;2023-04-02T14:35:48;2.97;;;2.77;;
10191;SDS011;17580;50.850;4.504;2023-04-02T14:38:23;2.40;;;2.07;;
10191;SDS011;17580;50.850;4.504;2023-04-02T14:40:56;2.30;;;2.10;;
10191;SDS011;17580;50.850;4.504;2023-04-02T14:43:30;2.60;;;2.17;;
10191;SDS011;17580;50.850;4.504;2023-04-02T14:46:04;3.23;;;2.23;;
10191;SDS011;17580;50.850;4.504;2023-04-02T14:48:39;4.27;;;2.63;;
10191;SDS011;17580;50.850;4.504;2023-04-02T14:51:12;2.40;;;2.20;;
10191;SDS011;17580;50.850;4.504;2023-04-02T14:53:46;3.80;;;3.40;;
10191;SDS011;17580;50.850;4.504;2023-04-02T14:56:18;4.50;;;2.60;;
10191;SDS011;17580;50.850;4.504;2023-04-02T14:58:47;2.50;;;2.30;;
10191;SDS011;17580;50.850;4.504;2023-04-02T15:01:18;4.80;;;2.50;;
10191;SDS011;17580;50.850;4.504;2023-04-02T15:03:54;3.40;;;2.70;;
10191;SDS011;17580;50.850;4.504;2023-04-02T15:06:28;3.77;;;2.90;;
10191;SDS011;17580;50.850;4.504;2023-04-02T15:09:00;6.07;;;2.37;;
10191;SDS011;17580;50.850;4.504;2023-04-02T15:11:30;7.90;;;2.90;;
10191;SDS011;17580;50.850;4.504;2023-04-02T15:14:03;4.53;;;2.47;;
10191;SDS011;17580;50.850;4.504;2023-04-02T15:16:33;5.57;;;3.07;;
10191;SDS011;17580;50.850;4.504;2023-04-02T15:19:02;3.90;;;2.47;;
10191;SDS011;17580;50.850;4.504;2023-04-02T15:21:48;3.13;;;2.50;;
10191;SDS011;17580;50.850;4.504;2023-04-02T15:24:26;2.97;;;2.77;;
10191;SDS011;17580;50.850;4.504;2023-04-02T15:27:04;3.77;;;2.70;;
10191;SDS011;17580;50.850;4.504;2023-04-02T15:29:41;3.37;;;3.03;;
10191;SDS011;17580;50.850;4.504;2023-04-02T15:32:17;3.77;;;3.10;;
10191;SDS011;17580;50.850;4.504;2023-04-02T15:34:55;4.97;;;3.17;;
10191;SDS011;17580;50.850;4.504;2023-04-02T15:37:27;3.00;;;2.70;;
10191;SDS011;17580;50.850;4.504;2023-04-02T15:40:15;4.43;;;3.00;;
10191;SDS011;17580;50.850;4.504;2023-04-02T15:42:51;2.60;;;2.40;;
10191;SDS011;17580;50.850;4.504;2023-04-02T15:45:28;3.03;;;2.33;;
10191;SDS011;17580;50.850;4.504;2023-04-02T15:48:18;4.33;;;2.50;;
10191;SDS011;17580;50.850;4.504;2023-04-02T15:50:57;4.53;;;2.20;;
10191;SDS011;17580;50.850;4.504;2023-04-02T15:53:38;2.87;;;2.27;;